| time (UTC) | temp F | wind direction | speed MPH | gust MPH | rain 1hr in | rain 24hr in | rain mn in | humidity % | barometer mb |
| 20260505073055 | 61 | 265 | 0.0 | 2.0 | 0.00 | 0.00 | 0.00 | 70 | 1008.0 |
| 20260505071550 | 62 | 272 | 0.0 | 3.0 | 0.00 | 0.00 | 0.00 | 69 | 1007.9 |
| 20260505064555 | 62 | 284 | 0.0 | 4.0 | 0.00 | 0.00 | 0.00 | 69 | 1008.0 |
| 20260505063047 | 62 | 245 | 0.0 | 4.0 | 0.00 | 0.00 | 0.00 | 69 | 1008.0 |
| 20260505061609 | 62 | 287 | 0.0 | 4.0 | 0.00 | 0.00 | 0.00 | 68 | 1008.2 |
| 20260505060050 | 63 | 195 | 0.0 | 4.0 | 0.00 | 0.00 | 0.00 | 68 | 1008.4 |
| 20260505054546 | 63 | 262 | 0.0 | 10.0 | 0.00 | 0.00 | 0.00 | 67 | 1008.4 |
| 20260505053039 | 63 | 248 | 0.0 | 5.0 | 0.00 | 0.00 | 0.00 | 67 | 1008.3 |
| 20260505051538 | 63 | 283 | 0.0 | 3.0 | 0.00 | 0.00 | 0.00 | 66 | 1008.4 |
| 20260505041534 | 64 | 286 | 0.0 | 1.0 | 0.00 | 0.00 | 0.00 | 64 | 1008.4 |
| 20260505040041 | 65 | 274 | 0.0 | 2.0 | 0.00 | 0.00 | 0.00 | 63 | 1008.3 |
| 20260505034540 | 66 | 306 | 0.0 | 2.0 | 0.00 | 0.00 | 0.00 | 61 | 1008.4 |
| 20260505033033 | 67 | 293 | 0.0 | 7.0 | 0.00 | 0.00 | 0.00 | 60 | 1008.2 |
| 20260505031540 | 67 | 217 | 0.0 | 4.0 | 0.00 | 0.00 | 0.00 | 59 | 1008.1 |
| 20260505030032 | 68 | 282 | 0.0 | 3.0 | 0.00 | 0.00 | 0.00 | 58 | 1008.0 |
| 20260505024532 | 68 | 318 | 0.0 | 5.0 | 0.00 | 0.00 | 0.00 | 57 | 1007.9 |
| 20260505023030 | 68 | 230 | 0.0 | 4.0 | 0.00 | 0.00 | 0.00 | 58 | 1007.7 |
| 20260505021533 | 68 | 313 | 0.0 | 4.0 | 0.00 | 0.00 | 0.00 | 58 | 1007.5 |
| 20260505020037 | 69 | 265 | 0.0 | 4.0 | 0.00 | 0.00 | 0.00 | 58 | 1007.3 |
| 20260505014531 | 69 | 284 | 0.0 | 2.0 | 0.00 | 0.00 | 0.00 | 56 | 1007.2 |
| 20260505013028 | 70 | 281 | 0.0 | 3.0 | 0.00 | 0.00 | 0.00 | 55 | 1007.1 |
| 20260505011529 | 70 | 285 | 0.0 | 3.0 | 0.00 | 0.00 | 0.00 | 53 | 1007.0 |
| 20260505010027 | 71 | 291 | 0.0 | 5.0 | 0.00 | 0.00 | 0.00 | 50 | 1007.1 |
| 20260505004525 | 72 | 317 | 1.0 | 8.0 | 0.00 | 0.00 | 0.00 | 49 | 1007.1 |
| 20260505003026 | 73 | 243 | 0.0 | 11.0 | 0.00 | 0.00 | 0.00 | 49 | 1007.2 |
| 20260505001524 | 74 | 307 | 2.0 | 7.0 | 0.00 | 0.00 | 0.00 | 49 | 1007.2 |
| 20260505000038 | 74 | 244 | 0.0 | 6.0 | 0.00 | 0.00 | 0.00 | 48 | 1007.1 |
| 20260504234524 | 75 | 287 | 2.0 | 9.0 | 0.00 | 0.00 | 0.00 | 47 | 1007.3 |
| 20260504233018 | 76 | 251 | 2.0 | 9.0 | 0.00 | 0.00 | 0.00 | 45 | 1007.8 |
| 20260504231517 | 77 | 279 | 3.0 | 9.0 | 0.00 | 0.00 | 0.00 | 45 | 1007.9 |
| 20260504230017 | 77 | 338 | 3.0 | 11.0 | 0.00 | 0.00 | 0.00 | 43 | 1007.9 |
| 20260504224518 | 77 | 220 | 2.0 | 12.0 | 0.00 | 0.00 | 0.00 | 44 | 1008.0 |
| 20260504223015 | 78 | 237 | 4.0 | 10.0 | 0.00 | 0.00 | 0.00 | 41 | 1008.1 |
| 20260504221520 | 79 | 293 | 5.0 | 16.0 | 0.00 | 0.00 | 0.00 | 42 | 1008.2 |
| 20260504220029 | 79 | 329 | 5.0 | 15.0 | 0.00 | 0.00 | 0.00 | 43 | 1008.1 |
| 20260504214512 | 79 | 142 | 6.0 | 12.0 | 0.00 | 0.00 | 0.00 | 43 | 1008.0 |
| 20260504213014 | 79 | 227 | 4.0 | 15.0 | 0.00 | 0.00 | 0.00 | 43 | 1008.1 |
| 20260504211610 | 79 | 326 | 5.0 | 18.0 | 0.00 | 0.00 | 0.00 | 42 | 1007.8 |
| 20260504210010 | 80 | 200 | 5.0 | 13.0 | 0.00 | 0.00 | 0.00 | 41 | 1007.9 |
| 20260504204508 | 79 | 25 | 3.0 | 13.0 | 0.00 | 0.00 | 0.00 | 42 | 1007.9 |
| 20260504203006 | 79 | 296 | 6.0 | 16.0 | 0.00 | 0.00 | 0.00 | 42 | 1008.0 |
| 20260504201505 | 79 | 216 | 5.0 | 17.0 | 0.00 | 0.00 | 0.00 | 43 | 1008.1 |
| 20260504200003 | 79 | 173 | 4.0 | 12.0 | 0.00 | 0.00 | 0.00 | 44 | 1008.4 |
| 20260504194600 | 79 | 5 | 4.0 | 10.0 | 0.00 | 0.00 | 0.00 | 45 | 1008.6 |
| 20260504193113 | 79 | 284 | 4.0 | 11.0 | 0.00 | 0.00 | 0.00 | 47 | 1008.8 |
| 20260504191556 | 79 | 5 | 3.0 | 10.0 | 0.00 | 0.00 | 0.00 | 47 | 1008.9 |
| 20260504190105 | 79 | 320 | 4.0 | 14.0 | 0.00 | 0.00 | 0.00 | 48 | 1009.2 |
| 20260504184551 | 78 | 342 | 3.0 | 12.0 | 0.00 | 0.00 | 0.00 | 48 | 1009.4 |
| 20260504183058 | 78 | 103 | 5.0 | 12.0 | 0.00 | 0.00 | 0.00 | 48 | 1009.6 |
| 20260504181547 | 78 | 219 | 5.0 | 13.0 | 0.00 | 0.00 | 0.00 | 49 | 1009.8 |
| 20260504180117 | 77 | 342 | 3.0 | 10.0 | 0.00 | 0.00 | 0.00 | 52 | 1009.9 |
| 20260504174545 | 77 | 277 | 3.0 | 12.0 | 0.00 | 0.00 | 0.00 | 52 | 1010.1 |
| 20260504173039 | 76 | 235 | 4.0 | 13.0 | 0.00 | 0.00 | 0.00 | 53 | 1010.2 |
| 20260504171537 | 76 | 330 | 3.0 | 12.0 | 0.00 | 0.00 | 0.00 | 52 | 1010.2 |
| 20260504081505 | 53 | 280 | 0.0 | 2.0 | 0.00 | 0.01 | 0.00 | 72 | 1011.4 |